sensor_id;sensor_type;location;lat;lon;timestamp;temperature;humidity
15203;DHT22;7702;51.046;5.184;2024-03-02T00:00:51;7.20;99.90
15203;DHT22;7702;51.046;5.184;2024-03-02T00:03:18;7.20;99.90
15203;DHT22;7702;51.046;5.184;2024-03-02T00:05:47;7.20;99.90
15203;DHT22;7702;51.046;5.184;2024-03-02T00:08:19;7.20;99.90
15203;DHT22;7702;51.046;5.184;2024-03-02T00:10:47;7.20;99.90
15203;DHT22;7702;51.046;5.184;2024-03-02T00:13:13;7.30;99.90
15203;DHT22;7702;51.046;5.184;2024-03-02T00:18:05;7.30;99.90
15203;DHT22;7702;51.046;5.184;2024-03-02T00:20:31;7.20;99.90
15203;DHT22;7702;51.046;5.184;2024-03-02T00:23:03;7.20;99.90
15203;DHT22;7702;51.046;5.184;2024-03-02T00:25:45;7.30;99.90
15203;DHT22;7702;51.046;5.184;2024-03-02T00:33:33;7.20;99.90
15203;DHT22;7702;51.046;5.184;2024-03-02T00:35:59;7.20;99.90
15203;DHT22;7702;51.046;5.184;2024-03-02T00:38:27;7.10;99.90
15203;DHT22;7702;51.046;5.184;2024-03-02T00:40:53;7.20;99.90
15203;DHT22;7702;51.046;5.184;2024-03-02T00:46:28;7.10;99.90
15203;DHT22;7702;51.046;5.184;2024-03-02T00:48:57;7.20;99.90
15203;DHT22;7702;51.046;5.184;2024-03-02T00:51:25;7.20;99.90
15203;DHT22;7702;51.046;5.184;2024-03-02T00:53:52;7.20;99.90
15203;DHT22;7702;51.046;5.184;2024-03-02T00:56:18;7.20;99.90
15203;DHT22;7702;51.046;5.184;2024-03-02T00:58:44;7.20;99.90
15203;DHT22;7702;51.046;5.184;2024-03-02T01:01:10;7.30;99.90
15203;DHT22;7702;51.046;5.184;2024-03-02T01:03:36;7.30;99.90
15203;DHT22;7702;51.046;5.184;2024-03-02T01:06:03;7.30;99.90
15203;DHT22;7702;51.046;5.184;2024-03-02T01:08:29;7.30;99.90
15203;DHT22;7702;51.046;5.184;2024-03-02T01:10:54;7.40;99.90
15203;DHT22;7702;51.046;5.184;2024-03-02T01:13:22;7.30;99.90
15203;DHT22;7702;51.046;5.184;2024-03-02T01:15:48;7.30;99.90
15203;DHT22;7702;51.046;5.184;2024-03-02T01:18:13;7.30;99.90
15203;DHT22;7702;51.046;5.184;2024-03-02T01:20:39;7.30;99.90
15203;DHT22;7702;51.046;5.184;2024-03-02T01:23:05;7.30;99.90
15203;DHT22;7702;51.046;5.184;2024-03-02T01:25:30;7.20;99.90
15203;DHT22;7702;51.046;5.184;2024-03-02T01:27:56;7.20;99.90
15203;DHT22;7702;51.046;5.184;2024-03-02T01:30:22;7.20;99.90
15203;DHT22;7702;51.046;5.184;2024-03-02T01:32:47;7.20;99.90
15203;DHT22;7702;51.046;5.184;2024-03-02T01:35:13;7.20;99.90
15203;DHT22;7702;51.046;5.184;2024-03-02T01:37:40;7.20;99.90
15203;DHT22;7702;51.046;5.184;2024-03-02T01:40:06;7.20;99.90
15203;DHT22;7702;51.046;5.184;2024-03-02T01:42:39;7.20;99.90
15203;DHT22;7702;51.046;5.184;2024-03-02T01:45:05;7.20;99.90
15203;DHT22;7702;51.046;5.184;2024-03-02T01:47:31;7.20;99.90
15203;DHT22;7702;51.046;5.184;2024-03-02T01:49:58;7.20;99.90
15203;DHT22;7702;51.046;5.184;2024-03-02T01:52:24;7.20;99.90
15203;DHT22;7702;51.046;5.184;2024-03-02T01:54:50;7.20;99.90
15203;DHT22;7702;51.046;5.184;2024-03-02T01:57:16;7.10;99.90
15203;DHT22;7702;51.046;5.184;2024-03-02T01:59:42;7.10;99.90
15203;DHT22;7702;51.046;5.184;2024-03-02T02:02:07;7.10;99.90
15203;DHT22;7702;51.046;5.184;2024-03-02T02:04:33;7.00;99.90
15203;DHT22;7702;51.046;5.184;2024-03-02T02:06:59;7.10;99.90
15203;DHT22;7702;51.046;5.184;2024-03-02T02:09:25;7.10;99.90
15203;DHT22;7702;51.046;5.184;2024-03-02T02:11:51;7.10;99.90
15203;DHT22;7702;51.046;5.184;2024-03-02T02:14:17;7.10;99.90
15203;DHT22;7702;51.046;5.184;2024-03-02T02:16:43;7.10;99.90
15203;DHT22;7702;51.046;5.184;2024-03-02T02:19:09;7.00;99.90
15203;DHT22;7702;51.046;5.184;2024-03-02T02:21:35;7.00;99.90
15203;DHT22;7702;51.046;5.184;2024-03-02T02:24:01;6.90;99.90
15203;DHT22;7702;51.046;5.184;2024-03-02T02:26:28;6.90;99.90
15203;DHT22;7702;51.046;5.184;2024-03-02T02:28:54;7.00;99.90
15203;DHT22;7702;51.046;5.184;2024-03-02T02:31:20;7.00;99.90
15203;DHT22;7702;51.046;5.184;2024-03-02T02:33:45;6.90;99.90
15203;DHT22;7702;51.046;5.184;2024-03-02T02:36:11;7.00;99.90
15203;DHT22;7702;51.046;5.184;2024-03-02T02:38:40;7.00;99.90
15203;DHT22;7702;51.046;5.184;2024-03-02T02:41:07;7.00;99.90
15203;DHT22;7702;51.046;5.184;2024-03-02T02:43:33;7.00;99.90
15203;DHT22;7702;51.046;5.184;2024-03-02T02:45:59;7.00;99.90
15203;DHT22;7702;51.046;5.184;2024-03-02T02:48:25;7.00;99.90
15203;DHT22;7702;51.046;5.184;2024-03-02T02:50:50;7.00;99.90
15203;DHT22;7702;51.046;5.184;2024-03-02T02:53:16;7.00;99.90
15203;DHT22;7702;51.046;5.184;2024-03-02T02:55:42;7.00;99.90
15203;DHT22;7702;51.046;5.184;2024-03-02T02:58:09;7.00;99.90
15203;DHT22;7702;51.046;5.184;2024-03-02T03:00:35;7.00;99.90
15203;DHT22;7702;51.046;5.184;2024-03-02T03:03:02;6.90;99.90
15203;DHT22;7702;51.046;5.184;2024-03-02T03:05:28;7.00;99.90
15203;DHT22;7702;51.046;5.184;2024-03-02T03:07:54;7.00;99.90
15203;DHT22;7702;51.046;5.184;2024-03-02T03:10:19;7.00;99.90
15203;DHT22;7702;51.046;5.184;2024-03-02T03:12:47;7.10;99.90
15203;DHT22;7702;51.046;5.184;2024-03-02T03:15:13;7.10;99.90
15203;DHT22;7702;51.046;5.184;2024-03-02T03:17:40;7.10;99.90
15203;DHT22;7702;51.046;5.184;2024-03-02T03:20:06;7.10;99.90
15203;DHT22;7702;51.046;5.184;2024-03-02T03:22:38;7.00;99.90
15203;DHT22;7702;51.046;5.184;2024-03-02T03:25:05;7.00;99.90
15203;DHT22;7702;51.046;5.184;2024-03-02T03:27:32;7.00;99.90
15203;DHT22;7702;51.046;5.184;2024-03-02T03:29:58;7.00;99.90
15203;DHT22;7702;51.046;5.184;2024-03-02T03:32:23;7.00;99.90
15203;DHT22;7702;51.046;5.184;2024-03-02T03:34:49;6.90;99.90
15203;DHT22;7702;51.046;5.184;2024-03-02T03:37:14;6.90;99.90
15203;DHT22;7702;51.046;5.184;2024-03-02T03:39:41;7.00;99.90
15203;DHT22;7702;51.046;5.184;2024-03-02T03:42:07;7.00;99.90
15203;DHT22;7702;51.046;5.184;2024-03-02T03:44:33;6.90;99.90
15203;DHT22;7702;51.046;5.184;2024-03-02T03:46:59;7.00;99.90
15203;DHT22;7702;51.046;5.184;2024-03-02T03:49:26;7.00;99.90
15203;DHT22;7702;51.046;5.184;2024-03-02T03:51:51;7.00;99.90
15203;DHT22;7702;51.046;5.184;2024-03-02T03:54:17;7.00;99.90
15203;DHT22;7702;51.046;5.184;2024-03-02T03:56:43;7.00;99.90
15203;DHT22;7702;51.046;5.184;2024-03-02T03:59:08;7.00;99.90
15203;DHT22;7702;51.046;5.184;2024-03-02T04:01:34;7.00;99.90
15203;DHT22;7702;51.046;5.184;2024-03-02T04:04:00;7.10;99.90
15203;DHT22;7702;51.046;5.184;2024-03-02T04:06:27;7.00;99.90
15203;DHT22;7702;51.046;5.184;2024-03-02T04:08:53;7.10;99.90
15203;DHT22;7702;51.046;5.184;2024-03-02T04:11:18;7.10;99.90
15203;DHT22;7702;51.046;5.184;2024-03-02T04:13:44;7.00;99.90
15203;DHT22;7702;51.046;5.184;2024-03-02T04:16:10;7.00;99.90
15203;DHT22;7702;51.046;5.184;2024-03-02T04:18:35;6.90;99.90
15203;DHT22;7702;51.046;5.184;2024-03-02T04:21:01;6.90;99.90
15203;DHT22;7702;51.046;5.184;2024-03-02T04:23:27;6.90;99.90
15203;DHT22;7702;51.046;5.184;2024-03-02T04:25:53;6.80;99.90
15203;DHT22;7702;51.046;5.184;2024-03-02T04:28:18;6.80;99.90
15203;DHT22;7702;51.046;5.184;2024-03-02T04:30:44;6.70;99.90
15203;DHT22;7702;51.046;5.184;2024-03-02T04:33:10;6.70;99.90
15203;DHT22;7702;51.046;5.184;2024-03-02T04:35:38;6.70;99.90
15203;DHT22;7702;51.046;5.184;2024-03-02T04:38:04;6.70;99.90
15203;DHT22;7702;51.046;5.184;2024-03-02T04:40:30;6.70;99.90
15203;DHT22;7702;51.046;5.184;2024-03-02T04:42:55;6.70;99.90
15203;DHT22;7702;51.046;5.184;2024-03-02T04:45:21;6.80;99.90
15203;DHT22;7702;51.046;5.184;2024-03-02T04:47:47;6.80;99.90
15203;DHT22;7702;51.046;5.184;2024-03-02T04:50:12;6.80;99.90
15203;DHT22;7702;51.046;5.184;2024-03-02T04:52:38;6.80;99.90
15203;DHT22;7702;51.046;5.184;2024-03-02T04:55:05;6.80;99.90
15203;DHT22;7702;51.046;5.184;2024-03-02T04:57:37;6.80;99.90
15203;DHT22;7702;51.046;5.184;2024-03-02T05:00:04;6.70;99.90
15203;DHT22;7702;51.046;5.184;2024-03-02T05:02:32;6.70;99.90
15203;DHT22;7702;51.046;5.184;2024-03-02T05:04:58;6.70;99.90
15203;DHT22;7702;51.046;5.184;2024-03-02T05:07:23;6.60;99.90
15203;DHT22;7702;51.046;5.184;2024-03-02T05:09:49;6.60;99.90
15203;DHT22;7702;51.046;5.184;2024-03-02T05:12:15;6.50;99.90
15203;DHT22;7702;51.046;5.184;2024-03-02T05:14:59;6.50;99.90
15203;DHT22;7702;51.046;5.184;2024-03-02T05:17:24;6.50;99.90
15203;DHT22;7702;51.046;5.184;2024-03-02T05:19:50;6.50;99.90
15203;DHT22;7702;51.046;5.184;2024-03-02T05:22:15;6.40;99.90
15203;DHT22;7702;51.046;5.184;2024-03-02T05:24:42;6.40;99.90
15203;DHT22;7702;51.046;5.184;2024-03-02T05:27:07;6.30;99.90
15203;DHT22;7702;51.046;5.184;2024-03-02T05:29:33;6.30;99.90
15203;DHT22;7702;51.046;5.184;2024-03-02T05:31:59;6.30;99.90
15203;DHT22;7702;51.046;5.184;2024-03-02T05:34:24;6.20;99.90
15203;DHT22;7702;51.046;5.184;2024-03-02T05:36:50;6.20;99.90
15203;DHT22;7702;51.046;5.184;2024-03-02T05:39:15;6.20;99.90
15203;DHT22;7702;51.046;5.184;2024-03-02T05:41:41;6.20;99.90
15203;DHT22;7702;51.046;5.184;2024-03-02T05:44:07;6.10;99.90
15203;DHT22;7702;51.046;5.184;2024-03-02T05:46:33;6.10;99.90
15203;DHT22;7702;51.046;5.184;2024-03-02T05:49:02;6.10;99.90
15203;DHT22;7702;51.046;5.184;2024-03-02T05:51:27;6.10;99.90
15203;DHT22;7702;51.046;5.184;2024-03-02T05:53:53;6.10;99.90
15203;DHT22;7702;51.046;5.184;2024-03-02T05:56:19;6.10;99.90
15203;DHT22;7702;51.046;5.184;2024-03-02T05:58:44;6.00;99.90
15203;DHT22;7702;51.046;5.184;2024-03-02T06:01:28;6.00;99.90
15203;DHT22;7702;51.046;5.184;2024-03-02T06:03:57;6.10;99.90
15203;DHT22;7702;51.046;5.184;2024-03-02T06:06:24;6.00;99.90
15203;DHT22;7702;51.046;5.184;2024-03-02T06:08:50;6.00;99.90
15203;DHT22;7702;51.046;5.184;2024-03-02T06:11:16;6.00;99.90
15203;DHT22;7702;51.046;5.184;2024-03-02T06:13:42;6.00;99.90
15203;DHT22;7702;51.046;5.184;2024-03-02T06:16:07;6.00;99.90
15203;DHT22;7702;51.046;5.184;2024-03-02T06:18:34;6.00;99.90
15203;DHT22;7702;51.046;5.184;2024-03-02T06:21:00;6.00;99.90
15203;DHT22;7702;51.046;5.184;2024-03-02T06:23:26;6.00;99.90
15203;DHT22;7702;51.046;5.184;2024-03-02T06:25:52;6.00;99.90
15203;DHT22;7702;51.046;5.184;2024-03-02T06:28:18;6.00;99.90
15203;DHT22;7702;51.046;5.184;2024-03-02T06:30:44;5.90;99.90
15203;DHT22;7702;51.046;5.184;2024-03-02T06:33:10;5.90;99.90
15203;DHT22;7702;51.046;5.184;2024-03-02T06:35:36;5.80;99.90
15203;DHT22;7702;51.046;5.184;2024-03-02T06:38:02;5.80;99.90
15203;DHT22;7702;51.046;5.184;2024-03-02T06:40:28;5.80;99.90
15203;DHT22;7702;51.046;5.184;2024-03-02T06:42:54;5.80;99.90
15203;DHT22;7702;51.046;5.184;2024-03-02T06:45:19;5.80;99.90
15203;DHT22;7702;51.046;5.184;2024-03-02T06:47:45;5.80;99.90
15203;DHT22;7702;51.046;5.184;2024-03-02T06:50:11;5.90;99.90
15203;DHT22;7702;51.046;5.184;2024-03-02T06:52:36;5.80;99.90
15203;DHT22;7702;51.046;5.184;2024-03-02T06:55:02;5.80;99.90
15203;DHT22;7702;51.046;5.184;2024-03-02T06:57:30;5.90;99.90
15203;DHT22;7702;51.046;5.184;2024-03-02T06:59:56;6.00;99.90
15203;DHT22;7702;51.046;5.184;2024-03-02T07:02:24;6.00;99.90
15203;DHT22;7702;51.046;5.184;2024-03-02T07:04:52;6.00;99.90
15203;DHT22;7702;51.046;5.184;2024-03-02T07:07:18;6.10;99.90
15203;DHT22;7702;51.046;5.184;2024-03-02T07:09:44;6.10;99.90
15203;DHT22;7702;51.046;5.184;2024-03-02T07:12:09;6.10;99.90
15203;DHT22;7702;51.046;5.184;2024-03-02T07:14:35;6.20;99.90
15203;DHT22;7702;51.046;5.184;2024-03-02T07:17:37;6.20;99.90
15203;DHT22;7702;51.046;5.184;2024-03-02T07:20:03;6.20;99.90
15203;DHT22;7702;51.046;5.184;2024-03-02T07:22:29;6.20;99.90
15203;DHT22;7702;51.046;5.184;2024-03-02T07:24:55;6.20;99.90
15203;DHT22;7702;51.046;5.184;2024-03-02T07:27:21;6.20;99.90
15203;DHT22;7702;51.046;5.184;2024-03-02T07:29:46;6.20;99.90
15203;DHT22;7702;51.046;5.184;2024-03-02T07:32:12;6.20;99.90
15203;DHT22;7702;51.046;5.184;2024-03-02T07:34:38;6.30;99.90
15203;DHT22;7702;51.046;5.184;2024-03-02T07:37:04;6.30;99.90
15203;DHT22;7702;51.046;5.184;2024-03-02T07:39:30;6.40;99.90
15203;DHT22;7702;51.046;5.184;2024-03-02T07:41:56;6.30;99.90
15203;DHT22;7702;51.046;5.184;2024-03-02T07:44:22;6.50;99.90
15203;DHT22;7702;51.046;5.184;2024-03-02T07:46:48;6.60;99.90
15203;DHT22;7702;51.046;5.184;2024-03-02T07:49:18;6.70;99.90
15203;DHT22;7702;51.046;5.184;2024-03-02T07:51:44;6.90;99.90
15203;DHT22;7702;51.046;5.184;2024-03-02T07:54:10;7.10;99.90
15203;DHT22;7702;51.046;5.184;2024-03-02T07:56:36;7.30;98.30
15203;DHT22;7702;51.046;5.184;2024-03-02T07:59:02;7.40;97.50
15203;DHT22;7702;51.046;5.184;2024-03-02T08:01:29;7.60;96.90
15203;DHT22;7702;51.046;5.184;2024-03-02T08:04:01;7.80;92.90
15203;DHT22;7702;51.046;5.184;2024-03-02T08:06:28;8.00;89.70
15203;DHT22;7702;51.046;5.184;2024-03-02T08:08:55;8.10;87.70
15203;DHT22;7702;51.046;5.184;2024-03-02T08:11:21;8.20;80.60
15203;DHT22;7702;51.046;5.184;2024-03-02T08:13:47;8.20;81.20
15203;DHT22;7702;51.046;5.184;2024-03-02T08:16:13;8.30;74.00
15203;DHT22;7702;51.046;5.184;2024-03-02T08:18:39;8.40;69.80
15203;DHT22;7702;51.046;5.184;2024-03-02T08:21:05;8.60;72.20
15203;DHT22;7702;51.046;5.184;2024-03-02T08:23:34;8.60;64.40
15203;DHT22;7702;51.046;5.184;2024-03-02T08:25:59;8.70;59.60
15203;DHT22;7702;51.046;5.184;2024-03-02T08:28:25;8.80;56.70
15203;DHT22;7702;51.046;5.184;2024-03-02T08:30:51;8.80;56.10
15203;DHT22;7702;51.046;5.184;2024-03-02T08:33:16;8.80;52.80
15203;DHT22;7702;51.046;5.184;2024-03-02T08:35:42;8.80;55.90
15203;DHT22;7702;51.046;5.184;2024-03-02T08:38:08;8.90;50.90
15203;DHT22;7702;51.046;5.184;2024-03-02T08:40:34;9.00;55.70
15203;DHT22;7702;51.046;5.184;2024-03-02T08:42:59;9.20;50.30
15203;DHT22;7702;51.046;5.184;2024-03-02T08:45:25;9.40;45.10
15203;DHT22;7702;51.046;5.184;2024-03-02T08:47:51;9.40;41.40
15203;DHT22;7702;51.046;5.184;2024-03-02T08:50:16;9.60;42.40
15203;DHT22;7702;51.046;5.184;2024-03-02T08:52:42;9.70;40.10
15203;DHT22;7702;51.046;5.184;2024-03-02T08:55:09;9.90;34.70
15203;DHT22;7702;51.046;5.184;2024-03-02T08:57:36;10.00;30.80
15203;DHT22;7702;51.046;5.184;2024-03-02T09:00:03;10.00;23.20
15203;DHT22;7702;51.046;5.184;2024-03-02T09:02:31;10.00;20.40
15203;DHT22;7702;51.046;5.184;2024-03-02T09:04:56;9.90;25.80
15203;DHT22;7702;51.046;5.184;2024-03-02T09:07:22;10.00;28.00
15203;DHT22;7702;51.046;5.184;2024-03-02T09:09:48;10.20;26.20
15203;DHT22;7702;51.046;5.184;2024-03-02T09:12:14;10.10;16.30
15203;DHT22;7702;51.046;5.184;2024-03-02T09:14:40;10.00;17.40
15203;DHT22;7702;51.046;5.184;2024-03-02T09:17:06;10.10;22.20
15203;DHT22;7702;51.046;5.184;2024-03-02T09:19:33;10.30;22.20
15203;DHT22;7702;51.046;5.184;2024-03-02T09:21:59;10.40;18.40
15203;DHT22;7702;51.046;5.184;2024-03-02T09:24:24;10.50;10.40
15203;DHT22;7702;51.046;5.184;2024-03-02T09:26:50;10.70;7.20
15203;DHT22;7702;51.046;5.184;2024-03-02T09:29:16;10.80;6.80
15203;DHT22;7702;51.046;5.184;2024-03-02T09:31:42;10.70;3.10
15203;DHT22;7702;51.046;5.184;2024-03-02T09:34:08;10.80;1.00
15203;DHT22;7702;51.046;5.184;2024-03-02T09:36:33;10.70;11.20
15203;DHT22;7702;51.046;5.184;2024-03-02T09:38:59;10.70;3.20
15203;DHT22;7702;51.046;5.184;2024-03-02T09:41:25;10.90;1.00
15203;DHT22;7702;51.046;5.184;2024-03-02T09:43:51;10.90;1.00
15203;DHT22;7702;51.046;5.184;2024-03-02T09:46:17;10.90;1.00
15203;DHT22;7702;51.046;5.184;2024-03-02T09:48:46;11.10;1.00
15203;DHT22;7702;51.046;5.184;2024-03-02T09:51:11;11.20;1.00
15203;DHT22;7702;51.046;5.184;2024-03-02T09:53:38;11.20;1.00
15203;DHT22;7702;51.046;5.184;2024-03-02T09:56:04;11.20;1.00
15203;DHT22;7702;51.046;5.184;2024-03-02T09:58:30;11.10;1.00
15203;DHT22;7702;51.046;5.184;2024-03-02T10:00:56;10.90;1.00
15203;DHT22;7702;51.046;5.184;2024-03-02T10:03:26;10.60;1.00
15203;DHT22;7702;51.046;5.184;2024-03-02T10:05:54;10.30;1.00
15203;DHT22;7702;51.046;5.184;2024-03-02T10:08:20;10.40;3.10
15203;DHT22;7702;51.046;5.184;2024-03-02T10:10:45;10.40;6.10
15203;DHT22;7702;51.046;5.184;2024-03-02T10:13:12;10.40;2.70
15203;DHT22;7702;51.046;5.184;2024-03-02T10:15:40;10.50;2.50
15203;DHT22;7702;51.046;5.184;2024-03-02T10:18:12;10.60;4.50
15203;DHT22;7702;51.046;5.184;2024-03-02T10:20:39;10.70;4.70
15203;DHT22;7702;51.046;5.184;2024-03-02T10:23:23;10.80;1.00
15203;DHT22;7702;51.046;5.184;2024-03-02T10:25:50;11.00;1.00
15203;DHT22;7702;51.046;5.184;2024-03-02T10:28:16;11.10;1.50
15203;DHT22;7702;51.046;5.184;2024-03-02T10:30:42;11.00;1.00
15203;DHT22;7702;51.046;5.184;2024-03-02T10:33:07;10.70;2.30
15203;DHT22;7702;51.046;5.184;2024-03-02T10:35:33;10.50;7.10
15203;DHT22;7702;51.046;5.184;2024-03-02T10:38:03;10.50;14.50
15203;DHT22;7702;51.046;5.184;2024-03-02T10:40:29;10.70;12.60
15203;DHT22;7702;51.046;5.184;2024-03-02T10:42:56;10.80;7.60
15203;DHT22;7702;51.046;5.184;2024-03-02T10:45:22;10.70;2.00
15203;DHT22;7702;51.046;5.184;2024-03-02T10:47:50;10.70;8.00
15203;DHT22;7702;51.046;5.184;2024-03-02T10:50:16;10.80;10.90
15203;DHT22;7702;51.046;5.184;2024-03-02T10:52:43;11.00;8.50
15203;DHT22;7702;51.046;5.184;2024-03-02T10:55:11;11.10;13.30
15203;DHT22;7702;51.046;5.184;2024-03-02T10:57:42;11.20;6.00
15203;DHT22;7702;51.046;5.184;2024-03-02T11:00:12;11.40;3.90
15203;DHT22;7702;51.046;5.184;2024-03-02T11:02:52;11.50;1.00
15203;DHT22;7702;51.046;5.184;2024-03-02T11:05:32;11.50;1.00
15203;DHT22;7702;51.046;5.184;2024-03-02T11:08:06;11.60;1.00
15203;DHT22;7702;51.046;5.184;2024-03-02T11:10:45;11.80;1.00
15203;DHT22;7702;51.046;5.184;2024-03-02T11:13:13;11.90;1.00
15203;DHT22;7702;51.046;5.184;2024-03-02T11:15:45;12.10;1.00
15203;DHT22;7702;51.046;5.184;2024-03-02T11:18:12;12.30;1.00
15203;DHT22;7702;51.046;5.184;2024-03-02T11:20:39;12.50;1.00
15203;DHT22;7702;51.046;5.184;2024-03-02T11:23:09;12.60;1.00
15203;DHT22;7702;51.046;5.184;2024-03-02T11:25:35;12.90;1.00
15203;DHT22;7702;51.046;5.184;2024-03-02T11:28:02;13.10;1.00
15203;DHT22;7702;51.046;5.184;2024-03-02T11:33:10;13.20;1.00
15203;DHT22;7702;51.046;5.184;2024-03-02T11:35:37;13.30;1.00
15203;DHT22;7702;51.046;5.184;2024-03-02T11:38:03;13.10;1.00
15203;DHT22;7702;51.046;5.184;2024-03-02T11:40:30;13.10;1.00
15203;DHT22;7702;51.046;5.184;2024-03-02T11:42:59;13.00;1.00
15203;DHT22;7702;51.046;5.184;2024-03-02T11:45:26;13.00;1.00
15203;DHT22;7702;51.046;5.184;2024-03-02T11:47:59;13.40;1.00
15203;DHT22;7702;51.046;5.184;2024-03-02T11:50:39;13.60;1.00
15203;DHT22;7702;51.046;5.184;2024-03-02T11:53:06;13.70;1.00
15203;DHT22;7702;51.046;5.184;2024-03-02T11:55:35;13.70;1.00
15203;DHT22;7702;51.046;5.184;2024-03-02T11:58:03;13.50;1.00
15203;DHT22;7702;51.046;5.184;2024-03-02T12:00:29;13.40;1.00
15203;DHT22;7702;51.046;5.184;2024-03-02T12:03:09;13.20;1.00
15203;DHT22;7702;51.046;5.184;2024-03-02T12:05:37;13.50;1.00
15203;DHT22;7702;51.046;5.184;2024-03-02T12:08:04;14.00;1.00
15203;DHT22;7702;51.046;5.184;2024-03-02T12:10:32;14.20;1.00
15203;DHT22;7702;51.046;5.184;2024-03-02T12:13:02;14.00;1.00
15203;DHT22;7702;51.046;5.184;2024-03-02T12:15:30;14.00;1.00
15203;DHT22;7702;51.046;5.184;2024-03-02T12:17:57;14.10;1.00
15203;DHT22;7702;51.046;5.184;2024-03-02T12:20:24;14.20;1.00
15203;DHT22;7702;51.046;5.184;2024-03-02T12:22:51;13.90;1.00
15203;DHT22;7702;51.046;5.184;2024-03-02T12:25:19;13.90;1.00
15203;DHT22;7702;51.046;5.184;2024-03-02T12:27:45;13.80;1.00
15203;DHT22;7702;51.046;5.184;2024-03-02T12:30:12;13.70;1.00
15203;DHT22;7702;51.046;5.184;2024-03-02T12:32:40;13.70;1.00
15203;DHT22;7702;51.046;5.184;2024-03-02T12:35:06;13.70;1.00
15203;DHT22;7702;51.046;5.184;2024-03-02T12:37:31;13.40;1.00
15203;DHT22;7702;51.046;5.184;2024-03-02T12:39:57;13.30;1.00
15203;DHT22;7702;51.046;5.184;2024-03-02T12:42:24;13.30;1.00
15203;DHT22;7702;51.046;5.184;2024-03-02T12:44:53;13.10;1.00
15203;DHT22;7702;51.046;5.184;2024-03-02T12:47:21;13.10;1.00
15203;DHT22;7702;51.046;5.184;2024-03-02T12:49:49;13.10;1.00
15203;DHT22;7702;51.046;5.184;2024-03-02T12:52:16;13.10;1.00
15203;DHT22;7702;51.046;5.184;2024-03-02T12:54:42;13.00;1.00
15203;DHT22;7702;51.046;5.184;2024-03-02T12:57:08;13.10;1.00
15203;DHT22;7702;51.046;5.184;2024-03-02T12:59:34;13.00;1.00
15203;DHT22;7702;51.046;5.184;2024-03-02T13:01:59;13.00;1.00
15203;DHT22;7702;51.046;5.184;2024-03-02T13:04:28;13.10;1.00
15203;DHT22;7702;51.046;5.184;2024-03-02T13:06:55;13.50;1.00
15203;DHT22;7702;51.046;5.184;2024-03-02T13:09:23;13.60;1.00
15203;DHT22;7702;51.046;5.184;2024-03-02T13:11:49;13.60;1.00
15203;DHT22;7702;51.046;5.184;2024-03-02T13:14:15;13.60;1.00
15203;DHT22;7702;51.046;5.184;2024-03-02T13:16:41;13.70;1.00
15203;DHT22;7702;51.046;5.184;2024-03-02T13:19:08;13.80;1.00
15203;DHT22;7702;51.046;5.184;2024-03-02T13:21:34;13.80;1.00
15203;DHT22;7702;51.046;5.184;2024-03-02T13:24:00;14.10;1.00
15203;DHT22;7702;51.046;5.184;2024-03-02T13:26:26;14.20;1.00
15203;DHT22;7702;51.046;5.184;2024-03-02T13:28:52;14.40;1.00
15203;DHT22;7702;51.046;5.184;2024-03-02T13:31:17;14.40;1.00
15203;DHT22;7702;51.046;5.184;2024-03-02T13:33:43;14.50;1.00
15203;DHT22;7702;51.046;5.184;2024-03-02T13:36:09;14.50;1.00
15203;DHT22;7702;51.046;5.184;2024-03-02T13:38:35;14.40;1.00
15203;DHT22;7702;51.046;5.184;2024-03-02T13:41:02;14.30;1.00
15203;DHT22;7702;51.046;5.184;2024-03-02T13:43:28;14.50;1.00
15203;DHT22;7702;51.046;5.184;2024-03-02T13:45:57;14.70;1.00
15203;DHT22;7702;51.046;5.184;2024-03-02T13:48:23;14.80;1.00
15203;DHT22;7702;51.046;5.184;2024-03-02T13:50:51;14.70;1.00
15203;DHT22;7702;51.046;5.184;2024-03-02T13:53:18;14.80;1.00
15203;DHT22;7702;51.046;5.184;2024-03-02T13:55:44;14.70;1.00
15203;DHT22;7702;51.046;5.184;2024-03-02T13:58:10;14.70;1.00
15203;DHT22;7702;51.046;5.184;2024-03-02T14:00:37;14.80;1.00
15203;DHT22;7702;51.046;5.184;2024-03-02T14:03:07;14.80;1.00
15203;DHT22;7702;51.046;5.184;2024-03-02T14:05:33;14.80;1.00
15203;DHT22;7702;51.046;5.184;2024-03-02T14:07:59;14.80;1.00
15203;DHT22;7702;51.046;5.184;2024-03-02T14:10:26;14.90;1.00
15203;DHT22;7702;51.046;5.184;2024-03-02T14:12:52;14.60;1.00
15203;DHT22;7702;51.046;5.184;2024-03-02T14:15:18;14.50;1.00
15203;DHT22;7702;51.046;5.184;2024-03-02T14:17:44;14.40;1.00
15203;DHT22;7702;51.046;5.184;2024-03-02T14:20:10;14.30;1.00
15203;DHT22;7702;51.046;5.184;2024-03-02T14:22:37;14.20;1.00
15203;DHT22;7702;51.046;5.184;2024-03-02T14:25:04;14.30;1.00
15203;DHT22;7702;51.046;5.184;2024-03-02T14:27:30;14.10;1.00
15203;DHT22;7702;51.046;5.184;2024-03-02T14:29:55;14.00;1.00
15203;DHT22;7702;51.046;5.184;2024-03-02T14:32:21;13.90;1.00
15203;DHT22;7702;51.046;5.184;2024-03-02T14:34:47;13.80;1.00
15203;DHT22;7702;51.046;5.184;2024-03-02T14:37:14;13.80;1.00
15203;DHT22;7702;51.046;5.184;2024-03-02T14:39:40;13.70;1.00
15203;DHT22;7702;51.046;5.184;2024-03-02T14:42:06;13.70;1.00
15203;DHT22;7702;51.046;5.184;2024-03-02T14:44:33;13.60;1.00
15203;DHT22;7702;51.046;5.184;2024-03-02T14:47:01;13.60;1.00
15203;DHT22;7702;51.046;5.184;2024-03-02T14:49:27;13.50;1.00
15203;DHT22;7702;51.046;5.184;2024-03-02T14:51:53;13.50;1.00
15203;DHT22;7702;51.046;5.184;2024-03-02T14:54:19;13.50;1.00
15203;DHT22;7702;51.046;5.184;2024-03-02T14:56:45;13.60;1.00
15203;DHT22;7702;51.046;5.184;2024-03-02T14:59:10;13.60;1.00
15203;DHT22;7702;51.046;5.184;2024-03-02T15:01:36;13.50;1.00
15203;DHT22;7702;51.046;5.184;2024-03-02T15:04:02;13.50;1.00
15203;DHT22;7702;51.046;5.184;2024-03-02T15:06:28;13.50;1.00
15203;DHT22;7702;51.046;5.184;2024-03-02T15:08:54;13.50;1.00
15203;DHT22;7702;51.046;5.184;2024-03-02T15:11:20;13.40;1.00
15203;DHT22;7702;51.046;5.184;2024-03-02T15:13:47;13.40;1.00
15203;DHT22;7702;51.046;5.184;2024-03-02T15:16:13;13.50;1.00
15203;DHT22;7702;51.046;5.184;2024-03-02T15:18:38;13.40;1.00
15203;DHT22;7702;51.046;5.184;2024-03-02T15:21:04;13.40;1.00
15203;DHT22;7702;51.046;5.184;2024-03-02T15:23:30;13.30;1.00
15203;DHT22;7702;51.046;5.184;2024-03-02T15:25:56;13.30;1.00
15203;DHT22;7702;51.046;5.184;2024-03-02T15:28:22;13.30;1.00
15203;DHT22;7702;51.046;5.184;2024-03-02T15:30:47;13.30;1.00
15203;DHT22;7702;51.046;5.184;2024-03-02T15:33:13;13.30;1.00
15203;DHT22;7702;51.046;5.184;2024-03-02T15:35:38;13.30;1.00
15203;DHT22;7702;51.046;5.184;2024-03-02T15:38:04;13.30;1.00
15203;DHT22;7702;51.046;5.184;2024-03-02T15:40:30;13.40;1.00
15203;DHT22;7702;51.046;5.184;2024-03-02T15:42:56;13.30;1.00
15203;DHT22;7702;51.046;5.184;2024-03-02T15:45:21;13.30;1.00
15203;DHT22;7702;51.046;5.184;2024-03-02T15:47:47;13.30;1.00
15203;DHT22;7702;51.046;5.184;2024-03-02T15:50:12;13.30;1.00
15203;DHT22;7702;51.046;5.184;2024-03-02T15:52:40;13.30;1.00
15203;DHT22;7702;51.046;5.184;2024-03-02T15:55:06;13.40;1.00
15203;DHT22;7702;51.046;5.184;2024-03-02T15:57:33;13.50;1.00
15203;DHT22;7702;51.046;5.184;2024-03-02T15:59:59;13.50;1.00
15203;DHT22;7702;51.046;5.184;2024-03-02T16:02:25;13.50;1.00
15203;DHT22;7702;51.046;5.184;2024-03-02T16:04:50;13.50;1.00
15203;DHT22;7702;51.046;5.184;2024-03-02T16:07:17;13.50;1.00
15203;DHT22;7702;51.046;5.184;2024-03-02T16:09:42;13.40;1.00
15203;DHT22;7702;51.046;5.184;2024-03-02T16:12:08;13.50;1.00